createdAt,value
2019-05-18T00:00:01.352Z,10.2
2019-05-18T00:05:01.433Z,10.4
2019-05-18T00:10:01.383Z,10.4
2019-05-18T00:15:01.538Z,10.6
2019-05-18T00:20:01.377Z,10.3
2019-05-18T00:25:01.470Z,10.3
2019-05-18T00:30:01.482Z,10.0
2019-05-18T00:35:01.476Z,10.0
2019-05-18T00:40:02.362Z,10.2
2019-05-18T00:45:01.394Z,10.4
2019-05-18T00:50:01.354Z,10.4
2019-05-18T01:00:01.494Z,11.5
2019-05-18T01:05:01.489Z,12.2
2019-05-18T01:15:01.500Z,12.4
2019-05-18T01:20:01.366Z,13.0
2019-05-18T01:25:06.474Z,13.3
2019-05-18T01:30:06.385Z,13.3
2019-05-18T01:35:06.443Z,14.1
2019-05-18T01:40:06.341Z,14.4
2019-05-18T01:45:17.784Z,14.6
2019-05-18T01:50:01.309Z,14.6
2019-05-18T01:55:01.440Z,14.2
2019-05-18T02:00:01.383Z,14.5
2019-05-18T02:10:01.454Z,14.5
2019-05-18T02:15:01.690Z,14.7
2019-05-18T02:20:01.353Z,15.5
2019-05-18T02:25:01.455Z,15.4
2019-05-18T02:30:06.761Z,15.8
2019-05-18T02:35:06.535Z,15.6
2019-05-18T02:40:01.429Z,15.4
2019-05-18T02:45:01.785Z,14.8
2019-05-18T02:50:01.404Z,15.0
2019-05-18T02:55:06.463Z,14.9
2019-05-18T03:00:01.419Z,15.0
2019-05-18T03:05:06.468Z,14.8
2019-05-18T03:10:01.508Z,15.2
2019-05-18T03:15:01.483Z,15.0
2019-05-18T03:20:01.476Z,14.8
2019-05-18T03:25:01.568Z,14.6
2019-05-18T03:30:01.472Z,15.1
2019-05-18T03:35:01.931Z,15.2
2019-05-18T03:40:03.703Z,15.2
2019-05-18T03:45:01.549Z,15.4
2019-05-18T03:50:01.413Z,14.2
2019-05-18T03:55:01.476Z,14.1
2019-05-18T04:00:01.551Z,13.9
2019-05-18T04:05:06.407Z,13.8
2019-05-18T04:10:01.418Z,13.7
2019-05-18T04:15:01.520Z,14.7
2019-05-18T04:20:06.410Z,14.2
2019-05-18T04:25:01.567Z,13.8
2019-05-18T04:30:01.521Z,13.7
2019-05-18T04:35:01.514Z,12.8
2019-05-18T04:40:01.630Z,12.5
2019-05-18T04:45:01.553Z,12.5
2019-05-18T04:50:06.693Z,12.4
2019-05-18T04:55:01.555Z,12.4
2019-05-18T05:00:01.440Z,12.7
2019-05-18T05:05:06.430Z,12.5
2019-05-18T05:10:06.559Z,12.4
2019-05-18T05:15:01.477Z,12.1
2019-05-18T05:20:01.474Z,11.6
2019-05-18T05:25:06.432Z,11.7
2019-05-18T05:30:06.434Z,11.7
2019-05-18T05:35:01.670Z,11.7
2019-05-18T05:40:01.550Z,11.6
2019-05-18T05:45:01.576Z,11.7
2019-05-18T05:50:01.550Z,11.7
2019-05-18T05:55:01.561Z,11.2
2019-05-18T06:00:01.508Z,11.2
2019-05-18T06:05:01.718Z,11.0
2019-05-18T06:10:01.427Z,11.0
2019-05-18T06:15:01.522Z,10.5
2019-05-18T06:20:02.402Z,10.4
2019-05-18T06:25:01.625Z,10.6
2019-05-18T06:30:06.422Z,10.9
2019-05-18T06:35:06.479Z,10.4
2019-05-18T06:40:01.422Z,10.8
2019-05-18T06:45:01.541Z,11.6
2019-05-18T06:50:01.417Z,11.1
2019-05-18T06:55:01.479Z,11.5
2019-05-18T07:00:01.447Z,11.8
2019-05-18T07:05:01.692Z,12.1
2019-05-18T07:10:06.434Z,12.0
2019-05-18T07:15:06.551Z,12.6
2019-05-18T07:20:06.425Z,12.8
2019-05-18T07:25:01.493Z,13.9
2019-05-18T07:30:01.435Z,14.2
2019-05-18T07:35:01.468Z,14.8
2019-05-18T07:50:06.428Z,14.1
2019-05-18T08:00:01.468Z,14.3
2019-05-18T08:05:01.510Z,14.4
2019-05-18T08:10:01.455Z,14.5
2019-05-18T08:20:01.470Z,14.4
2019-05-18T08:25:01.561Z,13.7
2019-05-18T08:30:01.439Z,13.8
2019-05-18T08:35:01.513Z,13.9
2019-05-18T08:40:01.484Z,14.1
2019-05-18T08:45:01.574Z,14.6
2019-05-18T08:50:01.612Z,14.7
2019-05-18T08:55:01.577Z,15.2
2019-05-18T09:05:05.505Z,16.1
2019-05-18T09:10:02.384Z,16.0
2019-05-18T09:20:01.514Z,16.6
2019-05-18T09:25:01.574Z,16.9
2019-05-18T09:30:01.448Z,17.2
2019-05-18T09:35:01.720Z,17.8
2019-05-18T09:40:01.472Z,18.8
2019-05-18T09:45:01.502Z,18.7
2019-05-18T09:55:01.543Z,19.6
2019-05-18T10:00:02.446Z,20.4
2019-05-18T10:05:01.566Z,20.4
2019-05-18T10:10:01.471Z,21.2
2019-05-18T10:15:01.544Z,21.6
2019-05-18T10:20:01.404Z,22.2
2019-05-18T10:25:01.482Z,22.7
2019-05-18T10:30:01.411Z,23.6
2019-05-18T10:35:01.480Z,23.8
2019-05-18T10:40:01.482Z,24.1
2019-05-18T10:45:02.576Z,24.9
2019-05-18T10:50:01.479Z,25.3
2019-05-18T11:05:01.636Z,27.0
2019-05-18T11:10:01.835Z,27.4
2019-05-18T11:15:01.506Z,28.0
2019-05-18T11:20:01.439Z,28.2
2019-05-18T11:30:01.721Z,28.8
2019-05-18T11:35:01.503Z,28.8
2019-05-18T11:40:01.412Z,28.6
2019-05-18T11:45:01.629Z,29.0
2019-05-18T11:50:01.448Z,28.7
2019-05-18T11:55:06.479Z,28.6
2019-05-18T12:00:06.506Z,28.2
2019-05-18T12:10:01.473Z,28.4
2019-05-18T12:15:06.484Z,28.6
2019-05-18T12:20:06.442Z,28.8
2019-05-18T12:25:01.476Z,29.3
2019-05-18T12:30:01.417Z,29.1
2019-05-18T12:35:01.557Z,29.0
2019-05-18T12:40:01.490Z,28.7
2019-05-18T12:45:01.488Z,28.3
2019-05-18T12:50:01.447Z,28.2
2019-05-18T13:00:01.582Z,28.2
2019-05-18T13:05:06.497Z,28.3
2019-05-18T13:10:01.444Z,28.2
2019-05-18T13:15:06.544Z,27.7
2019-05-18T13:20:01.699Z,26.9
2019-05-18T13:25:01.496Z,26.8
2019-05-18T13:30:06.421Z,26.6
2019-05-18T13:35:02.010Z,26.6
2019-05-18T13:45:01.482Z,27.3
2019-05-18T13:50:01.413Z,27.4
2019-05-18T13:55:05.582Z,27.5
2019-05-18T14:00:01.433Z,27.5
2019-05-18T14:05:01.472Z,27.4
2019-05-18T14:10:01.408Z,27.7
2019-05-18T14:15:06.637Z,27.6
2019-05-18T14:20:01.491Z,27.4
2019-05-18T14:25:10.516Z,27.6
2019-05-18T14:30:06.382Z,27.3
2019-05-18T14:35:01.536Z,26.9
2019-05-18T14:40:01.446Z,26.6
2019-05-18T14:45:01.712Z,26.6
2019-05-18T14:51:06.411Z,26.0
2019-05-18T14:56:06.535Z,26.0
2019-05-18T15:01:01.450Z,25.6
2019-05-18T15:06:01.735Z,25.2
2019-05-18T15:11:01.501Z,24.6
2019-05-18T15:16:01.472Z,24.8
2019-05-18T15:21:01.450Z,24.5
2019-05-18T15:26:01.451Z,24.8
2019-05-18T15:31:01.516Z,25.1
2019-05-18T15:42:01.488Z,25.3
2019-05-18T15:47:06.417Z,25.4
2019-05-18T15:52:01.436Z,25.5
2019-05-18T15:57:01.573Z,25.3
2019-05-18T16:02:06.783Z,24.9
2019-05-18T16:07:01.446Z,25.3
2019-05-18T16:12:01.455Z,25.2
2019-05-18T16:17:01.491Z,24.8
2019-05-18T16:27:01.452Z,25.8
2019-05-18T16:32:01.537Z,25.8
2019-05-18T16:37:01.572Z,25.4
2019-05-18T16:42:01.449Z,25.4
2019-05-18T16:47:01.573Z,25.1
2019-05-18T16:52:01.500Z,24.6
2019-05-18T16:57:01.531Z,24.6
2019-05-18T17:02:01.417Z,25.0
2019-05-18T17:07:01.406Z,25.5
2019-05-18T17:12:01.412Z,25.8
2019-05-18T17:17:01.547Z,26.3
2019-05-18T17:22:01.418Z,26.3
2019-05-18T17:27:01.623Z,26.4
2019-05-18T17:32:01.411Z,26.6
2019-05-18T17:37:01.467Z,26.3
2019-05-18T17:47:01.467Z,26.6
2019-05-18T17:52:01.410Z,26.8
2019-05-18T17:57:09.574Z,26.7
2019-05-18T18:02:01.414Z,27.1
2019-05-18T18:07:01.477Z,26.6
2019-05-18T18:12:01.494Z,26.6
2019-05-18T18:17:01.542Z,26.4
2019-05-18T18:22:01.421Z,26.0
2019-05-18T18:27:01.549Z,25.3
2019-05-18T18:32:01.417Z,25.2
2019-05-18T18:37:01.539Z,24.7
2019-05-18T18:42:01.412Z,24.3
2019-05-18T18:47:01.427Z,24.0
2019-05-18T18:52:01.419Z,24.1
2019-05-18T18:57:01.537Z,23.9
2019-05-18T19:02:01.417Z,24.0
2019-05-18T19:07:01.420Z,23.7
2019-05-18T19:12:01.498Z,24.0
2019-05-18T19:22:01.407Z,23.7
2019-05-18T19:27:01.591Z,24.0
2019-05-18T19:32:01.452Z,24.4
2019-05-18T19:52:01.443Z,25.4
2019-05-18T19:57:01.672Z,25.7
2019-05-18T20:02:01.441Z,25.5
2019-05-18T20:07:01.452Z,26.0
2019-05-18T20:12:01.451Z,26.2
2019-05-18T20:22:01.446Z,25.9
2019-05-18T20:27:01.516Z,26.4
2019-05-18T20:32:01.512Z,25.9
2019-05-18T20:37:01.720Z,25.9
2019-05-18T20:42:01.793Z,26.0
2019-05-18T20:47:01.566Z,26.4
2019-05-18T20:52:01.445Z,26.4
2019-05-18T21:02:06.430Z,27.1
2019-05-18T21:07:01.512Z,27.2
2019-05-18T21:18:06.551Z,27.2
2019-05-18T21:23:06.413Z,26.8
2019-05-18T21:28:06.417Z,26.6
2019-05-18T21:33:06.426Z,26.8
2019-05-18T21:38:01.428Z,26.7
2019-05-18T21:43:06.429Z,26.5
2019-05-18T21:48:06.418Z,26.5
2019-05-18T21:53:01.581Z,26.5
2019-05-18T21:58:01.452Z,26.2
2019-05-18T22:04:06.547Z,26.0
2019-05-18T22:09:06.426Z,26.4
2019-05-18T22:14:01.489Z,26.6
2019-05-18T22:19:01.430Z,26.8
2019-05-18T22:24:06.417Z,26.6
2019-05-18T22:29:06.428Z,26.9
2019-05-18T22:34:01.694Z,26.1
2019-05-18T22:39:06.414Z,25.9
2019-05-18T22:44:06.547Z,25.5
2019-05-18T22:49:01.435Z,25.2
2019-05-18T22:54:01.447Z,24.7
2019-05-18T23:00:01.584Z,25.0
2019-05-18T23:05:01.621Z,25.0
2019-05-18T23:10:06.423Z,25.0
2019-05-18T23:15:06.476Z,25.2
2019-05-18T23:20:06.421Z,25.0
2019-05-18T23:25:06.561Z,24.6
2019-05-18T23:30:06.427Z,23.4
2019-05-18T23:35:06.482Z,22.2
2019-05-18T23:40:01.446Z,20.4
2019-05-18T23:45:06.473Z,19.9
2019-05-18T23:50:06.420Z,18.9
2019-05-18T23:55:01.692Z,19.0
